sensor_id;sensor_type;location;lat;lon;timestamp;pressure;altitude;pressure_sealevel;temperature;humidity
13407;BME280;6774;48.208;10.766;2023-01-28T00:01:29;95906.81;;;-0.16;87.96
13407;BME280;6774;48.208;10.766;2023-01-28T00:03:57;95911.31;;;-0.31;87.39
13407;BME280;6774;48.208;10.766;2023-01-28T00:06:25;95903.94;;;-0.24;87.86
13407;BME280;6774;48.208;10.766;2023-01-28T00:08:54;95909.84;;;-0.22;88.04
13407;BME280;6774;48.208;10.766;2023-01-28T00:11:23;95908.06;;;-0.22;88.45
13407;BME280;6774;48.208;10.766;2023-01-28T00:13:51;95912.44;;;-0.22;88.04
13407;BME280;6774;48.208;10.766;2023-01-28T00:16:20;95904.66;;;-0.22;88.16
13407;BME280;6774;48.208;10.766;2023-01-28T00:18:48;95902.16;;;-0.24;88.44
13407;BME280;6774;48.208;10.766;2023-01-28T00:21:16;95903.13;;;-0.25;87.78
13407;BME280;6774;48.208;10.766;2023-01-28T00:23:48;95898.25;;;-0.30;88.86
13407;BME280;6774;48.208;10.766;2023-01-28T00:26:18;95895.66;;;-0.30;88.44
13407;BME280;6774;48.208;10.766;2023-01-28T00:28:47;95899.19;;;-0.31;88.39
13407;BME280;6774;48.208;10.766;2023-01-28T00:31:16;95896.16;;;-0.24;88.89
13407;BME280;6774;48.208;10.766;2023-01-28T00:33:46;95899.22;;;-0.19;88.57
13407;BME280;6774;48.208;10.766;2023-01-28T00:36:15;95901.63;;;-0.16;89.22
13407;BME280;6774;48.208;10.766;2023-01-28T00:38:48;95906.56;;;-0.13;88.35
13407;BME280;6774;48.208;10.766;2023-01-28T00:41:19;95904.47;;;-0.08;88.94
13407;BME280;6774;48.208;10.766;2023-01-28T00:43:50;95900.19;;;-0.09;88.52
13407;BME280;6774;48.208;10.766;2023-01-28T00:46:19;95902.91;;;-0.11;87.99
13407;BME280;6774;48.208;10.766;2023-01-28T00:48:48;95906.25;;;-0.09;87.87
13407;BME280;6774;48.208;10.766;2023-01-28T00:51:16;95894.31;;;-0.11;88.58
13407;BME280;6774;48.208;10.766;2023-01-28T00:53:47;95894.09;;;-0.08;88.03
13407;BME280;6774;48.208;10.766;2023-01-28T00:56:17;95901.75;;;-0.07;87.83
13407;BME280;6774;48.208;10.766;2023-01-28T00:58:46;95902.09;;;-0.11;88.24
13407;BME280;6774;48.208;10.766;2023-01-28T01:01:15;95898.56;;;-0.10;88.21
13407;BME280;6774;48.208;10.766;2023-01-28T01:03:44;95900.94;;;-0.07;88.33
13407;BME280;6774;48.208;10.766;2023-01-28T01:06:13;95907.78;;;-0.06;88.49
13407;BME280;6774;48.208;10.766;2023-01-28T01:08:41;95902.72;;;-0.08;88.32
13407;BME280;6774;48.208;10.766;2023-01-28T01:11:18;95898.78;;;-0.13;88.29
13407;BME280;6774;48.208;10.766;2023-01-28T01:13:49;95910.22;;;-0.16;87.72
13407;BME280;6774;48.208;10.766;2023-01-28T01:16:17;95914.59;;;-0.16;88.18
13407;BME280;6774;48.208;10.766;2023-01-28T01:18:47;95905.25;;;-0.19;88.09
13407;BME280;6774;48.208;10.766;2023-01-28T01:21:17;95907.63;;;-0.16;88.22
13407;BME280;6774;48.208;10.766;2023-01-28T01:23:46;95910.94;;;-0.14;87.74
13407;BME280;6774;48.208;10.766;2023-01-28T01:26:14;95912.81;;;-0.16;88.10
13407;BME280;6774;48.208;10.766;2023-01-28T01:28:43;95912.94;;;-0.17;87.91
13407;BME280;6774;48.208;10.766;2023-01-28T01:31:13;95915.63;;;-0.19;87.88
13407;BME280;6774;48.208;10.766;2023-01-28T01:33:43;95922.69;;;-0.21;87.95
13407;BME280;6774;48.208;10.766;2023-01-28T01:36:12;95925.16;;;-0.19;88.15
13407;BME280;6774;48.208;10.766;2023-01-28T01:38:41;95925.56;;;-0.13;88.06
13407;BME280;6774;48.208;10.766;2023-01-28T01:41:19;95923.31;;;-0.17;88.00
13407;BME280;6774;48.208;10.766;2023-01-28T01:43:51;95925.16;;;-0.19;87.58
13407;BME280;6774;48.208;10.766;2023-01-28T01:46:24;95927.03;;;-0.21;87.57
13407;BME280;6774;48.208;10.766;2023-01-28T01:48:54;95928.09;;;-0.24;88.75
13407;BME280;6774;48.208;10.766;2023-01-28T01:51:26;95939.06;;;-0.20;88.25
13407;BME280;6774;48.208;10.766;2023-01-28T01:53:56;95935.53;;;-0.19;88.41
13407;BME280;6774;48.208;10.766;2023-01-28T01:56:27;95939.06;;;-0.20;88.22
13407;BME280;6774;48.208;10.766;2023-01-28T01:58:57;95937.66;;;-0.24;88.24
13407;BME280;6774;48.208;10.766;2023-01-28T02:01:28;95941.50;;;-0.30;88.87
13407;BME280;6774;48.208;10.766;2023-01-28T02:04:03;95937.84;;;-0.28;87.98
13407;BME280;6774;48.208;10.766;2023-01-28T02:06:33;95934.91;;;-0.34;88.78
13407;BME280;6774;48.208;10.766;2023-01-28T02:09:05;95932.63;;;-0.39;88.38
13407;BME280;6774;48.208;10.766;2023-01-28T02:11:33;95936.66;;;-0.35;88.62
13407;BME280;6774;48.208;10.766;2023-01-28T02:14:04;95920.16;;;-0.34;88.96
13407;BME280;6774;48.208;10.766;2023-01-28T02:16:32;95929.59;;;-0.33;88.83
13407;BME280;6774;48.208;10.766;2023-01-28T02:19:00;95932.63;;;-0.39;88.92
13407;BME280;6774;48.208;10.766;2023-01-28T02:21:52;95935.44;;;-0.42;89.22
13407;BME280;6774;48.208;10.766;2023-01-28T02:27:23;95927.78;;;-0.43;88.78
13407;BME280;6774;48.208;10.766;2023-01-28T02:29:58;95935.88;;;-0.48;88.78
13407;BME280;6774;48.208;10.766;2023-01-28T02:32:33;95933.16;;;-0.46;89.25
13407;BME280;6774;48.208;10.766;2023-01-28T02:35:07;95936.50;;;-0.44;88.53
13407;BME280;6774;48.208;10.766;2023-01-28T02:37:45;95933.78;;;-0.43;89.16
13407;BME280;6774;48.208;10.766;2023-01-28T02:40:17;95942.28;;;-0.41;89.48
13407;BME280;6774;48.208;10.766;2023-01-28T02:42:47;95943.63;;;-0.35;89.29
13407;BME280;6774;48.208;10.766;2023-01-28T02:45:20;95939.72;;;-0.30;88.95
13407;BME280;6774;48.208;10.766;2023-01-28T02:47:48;95942.13;;;-0.26;88.72
13407;BME280;6774;48.208;10.766;2023-01-28T02:50:32;95943.00;;;-0.39;88.30
13407;BME280;6774;48.208;10.766;2023-01-28T02:53:12;95945.47;;;-0.37;88.19
13407;BME280;6774;48.208;10.766;2023-01-28T02:56:09;95947.34;;;-0.39;88.73
13407;BME280;6774;48.208;10.766;2023-01-28T02:58:42;95943.69;;;-0.37;88.47
13407;BME280;6774;48.208;10.766;2023-01-28T03:01:18;95950.75;;;-0.39;88.73
13407;BME280;6774;48.208;10.766;2023-01-28T03:03:57;95941.22;;;-0.38;88.56
13407;BME280;6774;48.208;10.766;2023-01-28T03:06:29;95947.16;;;-0.36;88.81
13407;BME280;6774;48.208;10.766;2023-01-28T03:09:03;95948.69;;;-0.34;88.26
13407;BME280;6774;48.208;10.766;2023-01-28T03:11:55;95955.53;;;-0.33;88.54
13407;BME280;6774;48.208;10.766;2023-01-28T03:14:44;95960.13;;;-0.36;88.75
13407;BME280;6774;48.208;10.766;2023-01-28T03:17:38;95948.69;;;-0.34;88.23
13407;BME280;6774;48.208;10.766;2023-01-28T03:20:28;95957.84;;;-0.41;88.79
13407;BME280;6774;48.208;10.766;2023-01-28T03:23:22;95955.34;;;-0.42;88.74
13407;BME280;6774;48.208;10.766;2023-01-28T03:26:14;95966.78;;;-0.45;88.57
13407;BME280;6774;48.208;10.766;2023-01-28T03:29:09;95956.19;;;-0.42;88.72
13407;BME280;6774;48.208;10.766;2023-01-28T03:31:58;95962.06;;;-0.40;88.84
13407;BME280;6774;48.208;10.766;2023-01-28T03:34:46;95956.41;;;-0.45;88.71
13407;BME280;6774;48.208;10.766;2023-01-28T03:37:32;95960.53;;;-0.42;88.29
13407;BME280;6774;48.208;10.766;2023-01-28T03:40:13;95960.97;;;-0.48;88.45
13407;BME280;6774;48.208;10.766;2023-01-28T03:42:42;95965.31;;;-0.49;88.41
13407;BME280;6774;48.208;10.766;2023-01-28T03:45:45;95964.91;;;-0.43;88.57
13407;BME280;6774;48.208;10.766;2023-01-28T03:48:17;95971.34;;;-0.48;88.02
13407;BME280;6774;48.208;10.766;2023-01-28T03:50:47;95973.63;;;-0.44;88.42
13407;BME280;6774;48.208;10.766;2023-01-28T03:53:15;95972.28;;;-0.49;88.12
13407;BME280;6774;48.208;10.766;2023-01-28T03:55:46;95972.16;;;-0.48;88.72
13407;BME280;6774;48.208;10.766;2023-01-28T03:58:16;95978.41;;;-0.50;88.99
13407;BME280;6774;48.208;10.766;2023-01-28T04:00:45;95982.34;;;-0.45;88.33
13407;BME280;6774;48.208;10.766;2023-01-28T04:03:14;95981.81;;;-0.50;88.42
13407;BME280;6774;48.208;10.766;2023-01-28T04:05:59;95978.81;;;-0.57;88.37
13407;BME280;6774;48.208;10.766;2023-01-28T04:08:43;95985.22;;;-0.49;88.25
13407;BME280;6774;48.208;10.766;2023-01-28T04:11:38;95980.88;;;-0.49;88.11
13407;BME280;6774;48.208;10.766;2023-01-28T04:14:07;95982.53;;;-0.48;88.54
13407;BME280;6774;48.208;10.766;2023-01-28T04:17:01;95992.91;;;-0.48;88.94
13407;BME280;6774;48.208;10.766;2023-01-28T04:19:31;95994.19;;;-0.53;88.94
13407;BME280;6774;48.208;10.766;2023-01-28T04:22:09;95990.84;;;-0.55;89.00
13407;BME280;6774;48.208;10.766;2023-01-28T04:24:39;95987.53;;;-0.58;89.11
13407;BME280;6774;48.208;10.766;2023-01-28T04:27:07;95985.66;;;-0.55;88.74
13407;BME280;6774;48.208;10.766;2023-01-28T04:29:35;95988.38;;;-0.57;88.56
13407;BME280;6774;48.208;10.766;2023-01-28T04:32:33;95987.34;;;-0.54;88.91
13407;BME280;6774;48.208;10.766;2023-01-28T04:35:06;95987.81;;;-0.49;88.54
13407;BME280;6774;48.208;10.766;2023-01-28T04:37:48;95991.66;;;-0.55;88.67
13407;BME280;6774;48.208;10.766;2023-01-28T04:40:30;95989.00;;;-0.53;88.82
13407;BME280;6774;48.208;10.766;2023-01-28T04:43:05;96004.31;;;-0.50;88.80
13407;BME280;6774;48.208;10.766;2023-01-28T04:45:47;96004.84;;;-0.45;89.35
13407;BME280;6774;48.208;10.766;2023-01-28T04:48:33;96009.91;;;-0.44;89.27
13407;BME280;6774;48.208;10.766;2023-01-28T04:51:18;96011.56;;;-0.43;89.22
13407;BME280;6774;48.208;10.766;2023-01-28T04:54:06;96011.56;;;-0.43;88.52
13407;BME280;6774;48.208;10.766;2023-01-28T04:56:36;96015.28;;;-0.47;88.66
13407;BME280;6774;48.208;10.766;2023-01-28T04:59:04;96018.72;;;-0.46;88.42
13407;BME280;6774;48.208;10.766;2023-01-28T05:01:33;96024.13;;;-0.49;88.83
13407;BME280;6774;48.208;10.766;2023-01-28T05:04:01;96020.56;;;-0.36;88.31
13407;BME280;6774;48.208;10.766;2023-01-28T05:06:34;96015.38;;;-0.36;88.05
13407;BME280;6774;48.208;10.766;2023-01-28T05:09:10;96019.81;;;-0.38;87.96
13407;BME280;6774;48.208;10.766;2023-01-28T05:11:39;96022.22;;;-0.35;88.03
13407;BME280;6774;48.208;10.766;2023-01-28T05:14:07;96012.56;;;-0.33;87.41
13407;BME280;6774;48.208;10.766;2023-01-28T05:16:50;96018.97;;;-0.25;87.12
13407;BME280;6774;48.208;10.766;2023-01-28T05:19:19;96022.22;;;-0.35;86.47
13407;BME280;6774;48.208;10.766;2023-01-28T05:21:47;96022.34;;;-0.36;86.66
13407;BME280;6774;48.208;10.766;2023-01-28T05:24:36;96025.66;;;-0.34;87.33
13407;BME280;6774;48.208;10.766;2023-01-28T05:27:04;96030.00;;;-0.35;87.24
13407;BME280;6774;48.208;10.766;2023-01-28T05:29:33;96035.59;;;-0.41;87.31
13407;BME280;6774;48.208;10.766;2023-01-28T05:32:01;96034.78;;;-0.41;87.57
13407;BME280;6774;48.208;10.766;2023-01-28T05:34:30;96041.97;;;-0.45;87.94
13407;BME280;6774;48.208;10.766;2023-01-28T05:37:02;96048.78;;;-0.44;88.34
13407;BME280;6774;48.208;10.766;2023-01-28T05:39:33;96047.84;;;-0.43;88.10
13407;BME280;6774;48.208;10.766;2023-01-28T05:42:02;96045.66;;;-0.36;87.70
13407;BME280;6774;48.208;10.766;2023-01-28T05:44:33;96041.81;;;-0.31;86.98
13407;BME280;6774;48.208;10.766;2023-01-28T05:47:17;96044.50;;;-0.32;86.53
13407;BME280;6774;48.208;10.766;2023-01-28T05:50:02;96053.00;;;-0.30;86.64
13407;BME280;6774;48.208;10.766;2023-01-28T05:52:42;96054.47;;;-0.39;86.97
13407;BME280;6774;48.208;10.766;2023-01-28T05:55:20;96055.72;;;-0.32;86.77
13407;BME280;6774;48.208;10.766;2023-01-28T05:57:49;96047.81;;;-0.30;86.73
13407;BME280;6774;48.208;10.766;2023-01-28T06:00:20;96049.69;;;-0.32;86.15
13407;BME280;6774;48.208;10.766;2023-01-28T06:02:49;96052.59;;;-0.37;86.57
13407;BME280;6774;48.208;10.766;2023-01-28T06:05:19;96051.75;;;-0.37;86.67
13407;BME280;6774;48.208;10.766;2023-01-28T06:07:47;96053.66;;;-0.39;86.26
13407;BME280;6774;48.208;10.766;2023-01-28T06:10:16;96051.16;;;-0.41;86.81
13407;BME280;6774;48.208;10.766;2023-01-28T06:12:45;96049.81;;;-0.46;86.61
13407;BME280;6774;48.208;10.766;2023-01-28T06:15:34;96048.47;;;-0.39;86.54
13407;BME280;6774;48.208;10.766;2023-01-28T06:18:29;96056.69;;;-0.45;86.09
13407;BME280;6774;48.208;10.766;2023-01-28T06:20:57;96058.00;;;-0.40;86.60
13407;BME280;6774;48.208;10.766;2023-01-28T06:23:25;96062.13;;;-0.37;86.25
13407;BME280;6774;48.208;10.766;2023-01-28T06:25:53;96067.97;;;-0.34;85.80
13407;BME280;6774;48.208;10.766;2023-01-28T06:28:23;96074.78;;;-0.33;85.35
13407;BME280;6774;48.208;10.766;2023-01-28T06:30:53;96076.88;;;-0.38;85.46
13407;BME280;6774;48.208;10.766;2023-01-28T06:33:21;96079.97;;;-0.33;85.34
13407;BME280;6774;48.208;10.766;2023-01-28T06:35:49;96082.47;;;-0.31;84.87
13407;BME280;6774;48.208;10.766;2023-01-28T06:38:18;96084.44;;;-0.35;84.17
13407;BME280;6774;48.208;10.766;2023-01-28T06:40:50;96087.66;;;-0.31;84.13
13407;BME280;6774;48.208;10.766;2023-01-28T06:43:18;96085.56;;;-0.26;84.47
13407;BME280;6774;48.208;10.766;2023-01-28T06:45:46;96087.53;;;-0.30;83.87
13407;BME280;6774;48.208;10.766;2023-01-28T06:48:15;96090.13;;;-0.30;83.99
13407;BME280;6774;48.208;10.766;2023-01-28T06:50:45;96090.97;;;-0.29;84.45
13407;BME280;6774;48.208;10.766;2023-01-28T06:53:13;96097.81;;;-0.28;83.17
13407;BME280;6774;48.208;10.766;2023-01-28T06:55:41;96097.19;;;-0.32;83.63
13407;BME280;6774;48.208;10.766;2023-01-28T06:58:09;96100.50;;;-0.30;83.95
13407;BME280;6774;48.208;10.766;2023-01-28T07:00:37;96098.84;;;-0.31;83.58
13407;BME280;6774;48.208;10.766;2023-01-28T07:03:06;96098.25;;;-0.34;83.77
13407;BME280;6774;48.208;10.766;2023-01-28T07:05:35;96101.78;;;-0.35;83.87
13407;BME280;6774;48.208;10.766;2023-01-28T07:08:02;96106.97;;;-0.35;83.20
13407;BME280;6774;48.208;10.766;2023-01-28T07:10:30;96101.78;;;-0.48;83.93
13407;BME280;6774;48.208;10.766;2023-01-28T07:12:58;96111.72;;;-0.42;84.12
13407;BME280;6774;48.208;10.766;2023-01-28T07:15:26;96102.31;;;-0.43;84.34
13407;BME280;6774;48.208;10.766;2023-01-28T07:17:54;96105.31;;;-0.36;84.39
13407;BME280;6774;48.208;10.766;2023-01-28T07:20:22;96112.16;;;-0.35;83.84
13407;BME280;6774;48.208;10.766;2023-01-28T07:22:51;96104.66;;;-0.40;84.42
13407;BME280;6774;48.208;10.766;2023-01-28T07:25:19;96111.50;;;-0.39;84.48
13407;BME280;6774;48.208;10.766;2023-01-28T07:27:48;96113.69;;;-0.33;84.36
13407;BME280;6774;48.208;10.766;2023-01-28T07:30:18;96118.34;;;-0.38;84.40
13407;BME280;6774;48.208;10.766;2023-01-28T07:32:46;96128.72;;;-0.38;84.45
13407;BME280;6774;48.208;10.766;2023-01-28T07:35:14;96137.25;;;-0.36;85.22
13407;BME280;6774;48.208;10.766;2023-01-28T07:37:51;96127.78;;;-0.37;85.31
13407;BME280;6774;48.208;10.766;2023-01-28T07:40:19;96125.00;;;-0.34;85.31
13407;BME280;6774;48.208;10.766;2023-01-28T07:42:48;96134.94;;;-0.28;85.88
13407;BME280;6774;48.208;10.766;2023-01-28T07:45:20;96136.63;;;-0.26;85.09
13407;BME280;6774;48.208;10.766;2023-01-28T07:47:53;96135.16;;;-0.18;85.88
13407;BME280;6774;48.208;10.766;2023-01-28T07:50:22;96145.72;;;-0.08;85.61
13407;BME280;6774;48.208;10.766;2023-01-28T07:52:51;96143.31;;;-0.11;85.23
13407;BME280;6774;48.208;10.766;2023-01-28T07:55:19;96155.56;;;-0.13;85.33
13407;BME280;6774;48.208;10.766;2023-01-28T07:57:49;96152.16;;;-0.14;85.04
13407;BME280;6774;48.208;10.766;2023-01-28T08:00:18;96148.09;;;-0.05;85.28
13407;BME280;6774;48.208;10.766;2023-01-28T08:02:46;96153.56;;;0.03;85.67
13407;BME280;6774;48.208;10.766;2023-01-28T08:05:16;96155.75;;;0.09;84.75
13407;BME280;6774;48.208;10.766;2023-01-28T08:07:45;96155.75;;;0.09;84.79
13407;BME280;6774;48.208;10.766;2023-01-28T08:10:15;96165.06;;;0.12;84.22
13407;BME280;6774;48.208;10.766;2023-01-28T08:12:51;96161.94;;;0.19;84.08
13407;BME280;6774;48.208;10.766;2023-01-28T08:15:20;96159.53;;;0.29;83.61
13407;BME280;6774;48.208;10.766;2023-01-28T08:17:48;96166.03;;;0.35;83.66
13407;BME280;6774;48.208;10.766;2023-01-28T08:20:16;96172.34;;;0.43;83.79
13407;BME280;6774;48.208;10.766;2023-01-28T08:22:44;96163.19;;;0.50;83.77
13407;BME280;6774;48.208;10.766;2023-01-28T08:25:12;96175.88;;;0.42;83.23
13407;BME280;6774;48.208;10.766;2023-01-28T08:27:41;96174.81;;;0.45;83.35
13407;BME280;6774;48.208;10.766;2023-01-28T08:30:10;96175.81;;;0.31;83.22
13407;BME280;6774;48.208;10.766;2023-01-28T08:32:38;96182.34;;;0.37;84.35
13407;BME280;6774;48.208;10.766;2023-01-28T08:35:07;96180.47;;;0.39;84.10
13407;BME280;6774;48.208;10.766;2023-01-28T08:37:34;96182.13;;;0.40;83.91
13407;BME280;6774;48.208;10.766;2023-01-28T08:40:02;96180.75;;;0.47;83.62
13407;BME280;6774;48.208;10.766;2023-01-28T08:42:30;96184.78;;;0.51;84.37
13407;BME280;6774;48.208;10.766;2023-01-28T08:45:00;96181.69;;;0.46;83.86
13407;BME280;6774;48.208;10.766;2023-01-28T08:47:28;96180.97;;;0.44;84.09
13407;BME280;6774;48.208;10.766;2023-01-28T08:49:55;96175.22;;;0.51;84.14
13407;BME280;6774;48.208;10.766;2023-01-28T08:52:23;96182.91;;;0.53;83.85
13407;BME280;6774;48.208;10.766;2023-01-28T08:54:50;96187.91;;;0.56;83.40
13407;BME280;6774;48.208;10.766;2023-01-28T08:57:18;96188.16;;;0.40;83.95
13407;BME280;6774;48.208;10.766;2023-01-28T08:59:46;96193.50;;;0.50;84.15
13407;BME280;6774;48.208;10.766;2023-01-28T09:02:15;96199.34;;;0.41;84.21
13407;BME280;6774;48.208;10.766;2023-01-28T09:04:58;96193.94;;;0.44;83.95
13407;BME280;6774;48.208;10.766;2023-01-28T09:07:25;96200.59;;;0.48;84.13
13407;BME280;6774;48.208;10.766;2023-01-28T09:09:53;96198.31;;;0.43;84.72
13407;BME280;6774;48.208;10.766;2023-01-28T09:12:21;96200.59;;;0.48;84.18
13407;BME280;6774;48.208;10.766;2023-01-28T09:14:49;96203.56;;;0.54;84.59
13407;BME280;6774;48.208;10.766;2023-01-28T09:17:20;96205.31;;;0.54;84.10
13407;BME280;6774;48.208;10.766;2023-01-28T09:19:48;96197.81;;;0.62;83.91
13407;BME280;6774;48.208;10.766;2023-01-28T09:22:16;96201.75;;;0.68;84.37
13407;BME280;6774;48.208;10.766;2023-01-28T09:24:44;96203.59;;;0.78;84.26
13407;BME280;6774;48.208;10.766;2023-01-28T09:27:12;96197.72;;;0.88;83.36
13407;BME280;6774;48.208;10.766;2023-01-28T09:29:40;96201.53;;;0.95;83.02
13407;BME280;6774;48.208;10.766;2023-01-28T09:32:08;96210.72;;;0.88;82.10
13407;BME280;6774;48.208;10.766;2023-01-28T09:34:38;96208.13;;;0.88;82.51
13407;BME280;6774;48.208;10.766;2023-01-28T09:37:06;96208.94;;;0.88;82.08
13407;BME280;6774;48.208;10.766;2023-01-28T09:39:34;96206.03;;;0.93;82.33
13407;BME280;6774;48.208;10.766;2023-01-28T09:42:18;96211.53;;;0.88;82.99
13407;BME280;6774;48.208;10.766;2023-01-28T09:44:59;96206.97;;;0.92;82.12
13407;BME280;6774;48.208;10.766;2023-01-28T09:47:32;96207.41;;;0.85;82.23
13407;BME280;6774;48.208;10.766;2023-01-28T09:50:05;96209.06;;;0.87;82.47
13407;BME280;6774;48.208;10.766;2023-01-28T09:52:36;96213.75;;;0.81;82.99
13407;BME280;6774;48.208;10.766;2023-01-28T09:55:13;96209.13;;;0.74;82.97
13407;BME280;6774;48.208;10.766;2023-01-28T09:57:44;96222.00;;;0.75;82.52
13407;BME280;6774;48.208;10.766;2023-01-28T10:00:15;96214.09;;;0.77;82.73
13407;BME280;6774;48.208;10.766;2023-01-28T10:02:54;96207.41;;;0.85;82.75
13407;BME280;6774;48.208;10.766;2023-01-28T10:05:34;96209.34;;;0.95;83.17
13407;BME280;6774;48.208;10.766;2023-01-28T10:08:21;96200.34;;;0.99;82.48
13407;BME280;6774;48.208;10.766;2023-01-28T10:10:55;96199.69;;;1.08;81.96
13407;BME280;6774;48.208;10.766;2023-01-28T10:13:35;96203.50;;;1.15;82.32
13407;BME280;6774;48.208;10.766;2023-01-28T10:16:15;96202.34;;;1.19;81.02
13407;BME280;6774;48.208;10.766;2023-01-28T10:18:47;96210.22;;;1.18;81.82
13407;BME280;6774;48.208;10.766;2023-01-28T10:21:23;96195.72;;;1.26;80.62
13407;BME280;6774;48.208;10.766;2023-01-28T10:23:58;96200.94;;;1.26;80.65
13407;BME280;6774;48.208;10.766;2023-01-28T10:26:32;96196.91;;;1.22;81.31
13407;BME280;6774;48.208;10.766;2023-01-28T10:29:03;96200.66;;;1.18;81.41
13407;BME280;6774;48.208;10.766;2023-01-28T10:31:35;96196.41;;;1.17;81.37
13407;BME280;6774;48.208;10.766;2023-01-28T10:34:07;96200.78;;;1.17;81.56
13407;BME280;6774;48.208;10.766;2023-01-28T10:36:37;96197.97;;;1.20;81.13
13407;BME280;6774;48.208;10.766;2023-01-28T10:39:05;96194.78;;;1.27;81.41
13407;BME280;6774;48.208;10.766;2023-01-28T10:41:34;96200.09;;;1.26;81.22
13407;BME280;6774;48.208;10.766;2023-01-28T10:44:17;96205.94;;;1.29;81.17
13407;BME280;6774;48.208;10.766;2023-01-28T10:46:50;96199.97;;;1.27;81.08
13407;BME280;6774;48.208;10.766;2023-01-28T10:49:23;96197.38;;;1.27;80.34
13407;BME280;6774;48.208;10.766;2023-01-28T10:51:54;96198.84;;;1.42;80.73
13407;BME280;6774;48.208;10.766;2023-01-28T10:54:23;96189.16;;;1.45;80.07
13407;BME280;6774;48.208;10.766;2023-01-28T10:56:53;96198.66;;;1.57;79.67
13407;BME280;6774;48.208;10.766;2023-01-28T10:59:25;96193.09;;;1.61;79.29
13407;BME280;6774;48.208;10.766;2023-01-28T11:01:56;96204.00;;;1.66;78.95
13407;BME280;6774;48.208;10.766;2023-01-28T11:04:25;96197.22;;;1.64;79.10
13407;BME280;6774;48.208;10.766;2023-01-28T11:06:58;96193.47;;;1.79;79.62
13407;BME280;6774;48.208;10.766;2023-01-28T11:09:28;96194.19;;;1.81;78.70
13407;BME280;6774;48.208;10.766;2023-01-28T11:11:57;96197.28;;;1.86;78.76
13407;BME280;6774;48.208;10.766;2023-01-28T11:14:26;96194.44;;;1.89;78.51
13407;BME280;6774;48.208;10.766;2023-01-28T11:16:57;96184.00;;;2.00;78.60
13407;BME280;6774;48.208;10.766;2023-01-28T11:19:28;96187.59;;;2.22;78.75
13407;BME280;6774;48.208;10.766;2023-01-28T11:21:59;96187.78;;;2.41;77.64
13407;BME280;6774;48.208;10.766;2023-01-28T11:24:28;96196.56;;;2.40;76.43
13407;BME280;6774;48.208;10.766;2023-01-28T11:26:59;96184.47;;;2.39;76.14
13407;BME280;6774;48.208;10.766;2023-01-28T11:29:31;96184.22;;;2.42;75.88
13407;BME280;6774;48.208;10.766;2023-01-28T11:32:00;96187.50;;;2.55;76.05
13407;BME280;6774;48.208;10.766;2023-01-28T11:34:31;96177.81;;;2.58;76.12
13407;BME280;6774;48.208;10.766;2023-01-28T11:37:12;96182.31;;;2.55;75.97
13407;BME280;6774;48.208;10.766;2023-01-28T11:39:41;96182.22;;;2.57;76.08
13407;BME280;6774;48.208;10.766;2023-01-28T11:42:12;96182.44;;;2.65;75.30
13407;BME280;6774;48.208;10.766;2023-01-28T11:44:42;96178.47;;;2.71;74.45
13407;BME280;6774;48.208;10.766;2023-01-28T11:47:37;96186.53;;;2.79;73.86
13407;BME280;6774;48.208;10.766;2023-01-28T11:50:23;96181.31;;;2.79;74.69
13407;BME280;6774;48.208;10.766;2023-01-28T11:53:01;96177.31;;;2.75;75.66
13407;BME280;6774;48.208;10.766;2023-01-28T11:55:40;96182.03;;;2.70;75.53
13407;BME280;6774;48.208;10.766;2023-01-28T11:58:19;96178.97;;;2.65;75.29
13407;BME280;6774;48.208;10.766;2023-01-28T12:00:54;96180.88;;;2.63;75.01
13407;BME280;6774;48.208;10.766;2023-01-28T12:03:54;96188.22;;;2.69;75.46
13407;BME280;6774;48.208;10.766;2023-01-28T12:06:39;96183.69;;;2.71;75.19
13407;BME280;6774;48.208;10.766;2023-01-28T12:09:20;96174.09;;;2.71;75.27
13407;BME280;6774;48.208;10.766;2023-01-28T12:12:02;96175.88;;;2.71;74.80
13407;BME280;6774;48.208;10.766;2023-01-28T12:15:16;96180.47;;;2.78;75.19
13407;BME280;6774;48.208;10.766;2023-01-28T12:17:58;96182.31;;;2.67;73.04
13407;BME280;6774;48.208;10.766;2023-01-28T12:20:35;96188.00;;;2.61;74.41
13407;BME280;6774;48.208;10.766;2023-01-28T12:23:19;96183.28;;;2.43;74.73
13407;BME280;6774;48.208;10.766;2023-01-28T12:26:03;96171.09;;;2.44;75.47
13407;BME280;6774;48.208;10.766;2023-01-28T12:28:41;96173.09;;;2.51;75.74
13407;BME280;6774;48.208;10.766;2023-01-28T12:31:28;96182.81;;;2.49;75.23
13407;BME280;6774;48.208;10.766;2023-01-28T12:34:21;96174.13;;;2.60;74.21
13407;BME280;6774;48.208;10.766;2023-01-28T12:36:56;96170.88;;;2.79;74.18
13407;BME280;6774;48.208;10.766;2023-01-28T12:39:43;96172.16;;;3.17;74.19
13407;BME280;6774;48.208;10.766;2023-01-28T12:42:22;96169.91;;;3.75;73.00
13407;BME280;6774;48.208;10.766;2023-01-28T12:44:59;96167.06;;;4.08;70.28
13407;BME280;6774;48.208;10.766;2023-01-28T12:47:33;96176.75;;;4.27;69.74
13407;BME280;6774;48.208;10.766;2023-01-28T12:50:11;96179.28;;;4.48;70.08
13407;BME280;6774;48.208;10.766;2023-01-28T12:52:45;96175.63;;;4.60;69.30
13407;BME280;6774;48.208;10.766;2023-01-28T12:55:17;96172.19;;;4.69;68.79
13407;BME280;6774;48.208;10.766;2023-01-28T12:57:48;96164.50;;;4.68;68.48
13407;BME280;6774;48.208;10.766;2023-01-28T13:00:23;96169.63;;;4.39;68.19
13407;BME280;6774;48.208;10.766;2023-01-28T13:02:59;96165.72;;;4.14;68.54
13407;BME280;6774;48.208;10.766;2023-01-28T13:05:32;96172.78;;;4.02;69.74
13407;BME280;6774;48.208;10.766;2023-01-28T13:08:03;96163.66;;;3.87;70.04
13407;BME280;6774;48.208;10.766;2023-01-28T13:10:36;96156.06;;;3.53;69.54
13407;BME280;6774;48.208;10.766;2023-01-28T13:13:14;96169.69;;;3.36;70.45
13407;BME280;6774;48.208;10.766;2023-01-28T13:15:44;96175.09;;;3.23;71.87
13407;BME280;6774;48.208;10.766;2023-01-28T13:18:30;96178.88;;;3.19;72.07
13407;BME280;6774;48.208;10.766;2023-01-28T13:20:59;96179.06;;;3.06;72.40
13407;BME280;6774;48.208;10.766;2023-01-28T13:23:37;96188.34;;;2.99;72.58
13407;BME280;6774;48.208;10.766;2023-01-28T13:26:11;96184.56;;;2.92;73.05
13407;BME280;6774;48.208;10.766;2023-01-28T13:29:06;96187.69;;;2.86;73.32
13407;BME280;6774;48.208;10.766;2023-01-28T13:31:39;96187.00;;;2.84;73.58
13407;BME280;6774;48.208;10.766;2023-01-28T13:34:26;96186.34;;;2.92;74.07
13407;BME280;6774;48.208;10.766;2023-01-28T13:36:56;96193.13;;;2.83;73.42
13407;BME280;6774;48.208;10.766;2023-01-28T13:39:26;96197.19;;;2.76;73.79
13407;BME280;6774;48.208;10.766;2023-01-28T13:42:06;96192.81;;;2.76;74.20